createdAt,value
2022-08-29T00:02:25.417Z,3.55
2022-08-29T00:05:13.602Z,3.60
2022-08-29T00:08:04.753Z,3.75
2022-08-29T00:10:53.027Z,4.10
2022-08-29T00:13:41.818Z,3.50
2022-08-29T00:16:30.045Z,3.95
2022-08-29T00:19:20.320Z,3.50
2022-08-29T00:22:08.536Z,3.50
2022-08-29T00:24:56.680Z,3.40
2022-08-29T00:27:45.265Z,3.88
2022-08-29T00:30:38.704Z,3.83
2022-08-29T00:33:27.264Z,4.00
2022-08-29T00:36:16.808Z,4.32
2022-08-29T00:39:05.564Z,4.22
2022-08-29T00:41:57.633Z,4.30
2022-08-29T00:44:46.155Z,4.20
2022-08-29T00:47:38.456Z,4.13
2022-08-29T00:50:29.895Z,3.90
2022-08-29T00:53:23.812Z,3.63
2022-08-29T00:56:15.593Z,4.15
2022-08-29T00:59:08.375Z,4.40
2022-08-29T01:01:56.704Z,3.78
2022-08-29T01:04:45.699Z,4.25
2022-08-29T01:07:34.510Z,4.15
2022-08-29T01:10:45.065Z,3.70
2022-08-29T01:13:37.347Z,3.97
2022-08-29T01:16:28.150Z,4.18
2022-08-29T01:19:24.297Z,3.65
2022-08-29T01:22:48.513Z,5.30
2022-08-29T01:25:42.282Z,3.90
2022-08-29T01:28:33.412Z,4.25
2022-08-29T01:31:37.675Z,3.75
2022-08-29T01:34:34.170Z,3.20
2022-08-29T01:37:22.823Z,4.35
2022-08-29T01:40:12.152Z,4.07
2022-08-29T01:43:01.803Z,4.22
2022-08-29T01:45:50.252Z,3.80
2022-08-29T01:48:39.914Z,3.72
2022-08-29T01:51:28.114Z,3.85
2022-08-29T01:54:16.670Z,4.07
2022-08-29T01:57:08.576Z,4.15
2022-08-29T02:00:00.710Z,4.63
2022-08-29T02:02:48.918Z,3.92
2022-08-29T02:05:37.103Z,3.67
2022-08-29T02:08:25.242Z,4.10
2022-08-29T02:11:15.883Z,4.25
2022-08-29T02:14:04.651Z,4.13
2022-08-29T02:16:54.285Z,3.58
2022-08-29T02:19:43.529Z,3.72
2022-08-29T02:22:31.984Z,3.60
2022-08-29T02:25:38.987Z,4.65
2022-08-29T02:28:27.166Z,3.63
2022-08-29T02:31:16.666Z,3.90
2022-08-29T02:34:06.371Z,3.92
2022-08-29T02:36:54.554Z,3.55
2022-08-29T02:39:44.651Z,3.85
2022-08-29T02:42:32.846Z,3.72
2022-08-29T02:45:22.045Z,4.45
2022-08-29T02:48:12.002Z,5.05
2022-08-29T02:51:01.510Z,6.13
2022-08-29T02:53:50.699Z,6.00
2022-08-29T02:56:39.210Z,5.65
2022-08-29T02:59:27.845Z,5.20
2022-08-29T03:02:16.132Z,5.28
2022-08-29T03:05:04.588Z,4.88
2022-08-29T03:07:54.172Z,6.82
2022-08-29T03:10:43.986Z,5.28
2022-08-29T03:13:32.216Z,5.85
2022-08-29T03:16:20.400Z,5.05
2022-08-29T03:19:08.586Z,4.47
2022-08-29T03:21:56.727Z,4.65
2022-08-29T03:24:46.380Z,4.65
2022-08-29T03:27:35.633Z,4.20
2022-08-29T03:30:24.215Z,4.78
2022-08-29T03:33:12.461Z,4.35
2022-08-29T03:36:00.682Z,4.25
2022-08-29T03:38:49.424Z,4.55
2022-08-29T03:41:38.925Z,3.75
2022-08-29T03:44:27.255Z,3.67
2022-08-29T03:47:16.712Z,3.83
2022-08-29T03:50:05.438Z,4.25
2022-08-29T03:52:53.608Z,3.72
2022-08-29T03:55:42.324Z,3.67
2022-08-29T03:58:31.834Z,4.13
2022-08-29T04:01:20.200Z,4.35
2022-08-29T04:04:08.494Z,3.88
2022-08-29T04:06:56.687Z,3.83
2022-08-29T04:09:45.039Z,3.50
2022-08-29T04:12:33.206Z,4.32
2022-08-29T04:15:23.289Z,3.72
2022-08-29T04:18:12.267Z,4.20
2022-08-29T04:21:03.258Z,3.70
2022-08-29T04:26:41.088Z,3.88
2022-08-29T04:29:29.432Z,3.70
2022-08-29T04:32:19.909Z,3.78
2022-08-29T04:35:09.332Z,3.72
2022-08-29T04:37:57.919Z,3.67
2022-08-29T04:40:46.294Z,3.55
2022-08-29T04:43:34.625Z,4.72
2022-08-29T04:46:23.958Z,4.13
2022-08-29T04:49:14.239Z,3.90
2022-08-29T04:52:02.553Z,3.72
2022-08-29T04:54:50.953Z,3.70
2022-08-29T04:57:39.639Z,3.97
2022-08-29T05:00:30.408Z,4.57
2022-08-29T05:03:18.916Z,3.95
2022-08-29T05:06:13.760Z,3.58
2022-08-29T05:09:01.954Z,3.75
2022-08-29T05:11:50.255Z,3.17
2022-08-29T05:14:38.410Z,3.65
2022-08-29T05:17:27.048Z,4.53
2022-08-29T05:20:15.272Z,3.78
2022-08-29T05:23:04.803Z,4.38
2022-08-29T05:25:56.879Z,4.20
2022-08-29T05:28:47.089Z,3.97
2022-08-29T05:31:36.683Z,4.00
2022-08-29T05:34:34.033Z,4.35
2022-08-29T05:37:23.274Z,4.88
2022-08-29T05:40:13.220Z,4.65
2022-08-29T05:43:01.541Z,4.43
2022-08-29T05:45:49.767Z,4.10
2022-08-29T05:48:42.141Z,3.85
2022-08-29T05:51:37.254Z,4.20
2022-08-29T05:54:29.476Z,4.43
2022-08-29T06:00:10.608Z,3.83
2022-08-29T06:02:58.876Z,4.15
2022-08-29T06:05:51.857Z,4.68
2022-08-29T06:08:40.050Z,4.15
2022-08-29T06:11:31.924Z,3.95
2022-08-29T06:14:21.883Z,4.07
2022-08-29T06:17:10.091Z,3.88
2022-08-29T06:19:58.270Z,3.88
2022-08-29T06:22:46.436Z,4.82
2022-08-29T06:25:39.857Z,3.83
2022-08-29T06:28:28.787Z,4.25
2022-08-29T06:31:21.601Z,3.75
2022-08-29T06:34:10.781Z,4.10
2022-08-29T06:36:59.467Z,4.28
2022-08-29T06:39:47.708Z,3.65
2022-08-29T06:42:36.048Z,4.00
2022-08-29T06:45:24.317Z,4.82
2022-08-29T06:48:14.010Z,4.93
2022-08-29T06:51:04.900Z,3.80
2022-08-29T06:53:53.825Z,4.18
2022-08-29T06:56:42.636Z,3.20
2022-08-29T06:59:31.047Z,3.65
2022-08-29T07:02:21.221Z,4.15
2022-08-29T07:05:13.236Z,4.22
2022-08-29T07:08:04.641Z,5.20
2022-08-29T07:10:53.614Z,4.75
2022-08-29T07:13:43.029Z,4.68
2022-08-29T07:16:32.854Z,4.30
2022-08-29T07:19:21.536Z,4.28
2022-08-29T07:22:14.667Z,4.65
2022-08-29T07:25:03.567Z,4.35
2022-08-29T07:27:53.491Z,4.45
2022-08-29T07:30:42.120Z,4.32
2022-08-29T07:33:31.389Z,4.60
2022-08-29T07:36:20.003Z,5.07
2022-08-29T07:39:13.051Z,5.28
2022-08-29T07:42:01.498Z,4.57
2022-08-29T07:44:50.015Z,4.05
2022-08-29T07:47:39.062Z,4.40
2022-08-29T07:50:27.606Z,4.63
2022-08-29T07:53:18.644Z,4.28
2022-08-29T07:56:10.519Z,3.88
2022-08-29T07:59:00.263Z,4.47
2022-08-29T08:01:49.581Z,3.75
2022-08-29T08:04:38.053Z,4.45
2022-08-29T08:07:29.591Z,4.50
2022-08-29T08:10:20.499Z,4.72
2022-08-29T08:15:59.612Z,4.43
2022-08-29T08:18:48.647Z,4.15
2022-08-29T08:21:37.257Z,4.20
2022-08-29T08:24:33.302Z,4.20
2022-08-29T08:27:22.225Z,5.03
2022-08-29T08:30:13.470Z,5.40
2022-08-29T08:33:04.988Z,4.85
2022-08-29T08:35:53.608Z,4.85
2022-08-29T08:38:42.245Z,4.38
2022-08-29T08:41:44.351Z,4.32
2022-08-29T08:44:58.129Z,5.05
2022-08-29T08:47:51.372Z,4.25
2022-08-29T08:50:45.954Z,4.68
2022-08-29T08:53:37.381Z,4.03
2022-08-29T08:56:33.584Z,5.15
2022-08-29T08:59:28.521Z,3.95
2022-08-29T09:02:28.139Z,4.40
2022-08-29T09:05:32.913Z,4.55
2022-08-29T09:08:29.831Z,4.80
2022-08-29T09:11:25.064Z,4.32
2022-08-29T09:14:27.549Z,4.25
2022-08-29T09:17:21.226Z,4.65
2022-08-29T09:20:13.269Z,4.40
2022-08-29T09:23:05.844Z,4.53
2022-08-29T09:25:54.057Z,4.47
2022-08-29T09:28:42.260Z,4.65
2022-08-29T09:31:33.403Z,5.03
2022-08-29T09:35:04.380Z,4.90
2022-08-29T09:37:55.508Z,4.43
2022-08-29T09:40:50.417Z,4.18
2022-08-29T09:43:50.458Z,5.13
2022-08-29T09:46:38.830Z,4.38
2022-08-29T09:49:26.983Z,4.22
2022-08-29T09:52:17.372Z,4.40
2022-08-29T09:55:29.834Z,3.72
2022-08-29T09:58:39.548Z,3.83
2022-08-29T10:01:29.714Z,4.15
2022-08-29T10:04:38.562Z,4.13
2022-08-29T10:07:29.231Z,4.07
2022-08-29T10:13:11.800Z,4.28
2022-08-29T10:16:08.905Z,4.57
2022-08-29T10:19:00.177Z,4.30
2022-08-29T10:21:58.242Z,3.75
2022-08-29T10:24:58.280Z,4.13
2022-08-29T10:27:53.622Z,3.67
2022-08-29T10:30:54.758Z,4.10
2022-08-29T10:34:02.029Z,3.80
2022-08-29T10:36:57.255Z,4.20
2022-08-29T10:39:57.542Z,4.20
2022-08-29T10:42:47.504Z,3.42
2022-08-29T10:45:47.277Z,3.17
2022-08-29T10:48:43.731Z,3.20
2022-08-29T10:51:41.982Z,3.28
2022-08-29T10:54:37.490Z,3.00
2022-08-29T10:57:41.095Z,3.10
2022-08-29T11:00:39.269Z,3.45
2022-08-29T11:03:40.151Z,3.08
2022-08-29T11:06:33.081Z,3.83
2022-08-29T11:09:28.720Z,3.13
2022-08-29T11:12:19.593Z,3.72
2022-08-29T11:15:16.586Z,3.05
2022-08-29T11:18:11.872Z,3.10
2022-08-29T11:21:10.938Z,3.10
2022-08-29T11:24:03.113Z,3.00
2022-08-29T11:27:02.777Z,2.90
2022-08-29T11:29:58.186Z,2.97
2022-08-29T11:32:58.815Z,3.00
2022-08-29T11:39:07.278Z,2.58
2022-08-29T11:41:59.994Z,3.00
2022-08-29T11:44:51.684Z,3.10
2022-08-29T11:47:58.005Z,3.10
2022-08-29T11:50:47.308Z,3.42
2022-08-29T11:53:35.878Z,3.10
2022-08-29T11:56:28.262Z,2.60
2022-08-29T11:59:46.950Z,2.88
2022-08-29T12:02:48.731Z,2.80
2022-08-29T12:06:00.321Z,2.70
2022-08-29T12:08:56.551Z,2.72
2022-08-29T12:12:20.161Z,3.10
2022-08-29T12:15:46.986Z,2.28
2022-08-29T12:18:46.563Z,2.78
2022-08-29T12:21:49.880Z,3.25
2022-08-29T12:24:44.240Z,2.30
2022-08-29T12:28:08.261Z,2.53
2022-08-29T12:31:08.100Z,2.40
2022-08-29T12:34:10.774Z,2.30
2022-08-29T12:37:33.572Z,2.42
2022-08-29T12:40:41.690Z,2.45
2022-08-29T12:43:37.163Z,2.35
2022-08-29T12:46:30.262Z,2.50
2022-08-29T12:49:24.158Z,2.33
2022-08-29T12:52:23.659Z,2.30
2022-08-29T12:55:23.943Z,2.00
2022-08-29T12:58:35.948Z,2.08
2022-08-29T13:01:30.699Z,2.35
2022-08-29T13:04:23.217Z,2.50
2022-08-29T13:07:18.366Z,2.80
2022-08-29T13:10:08.058Z,2.75
2022-08-29T13:13:05.872Z,2.57
2022-08-29T13:15:55.808Z,2.20
2022-08-29T13:19:00.148Z,2.42
2022-08-29T13:21:50.137Z,2.65
2022-08-29T13:24:38.384Z,2.50
2022-08-29T13:27:26.801Z,2.78
2022-08-29T13:30:23.893Z,3.10
2022-08-29T13:33:34.754Z,2.40
2022-08-29T13:36:31.512Z,2.55
2022-08-29T13:39:27.088Z,2.90
2022-08-29T13:42:22.078Z,3.13
2022-08-29T13:45:14.460Z,2.50
2022-08-29T13:48:21.228Z,3.33
2022-08-29T13:51:09.490Z,2.58
2022-08-29T13:53:57.932Z,2.83
2022-08-29T13:56:50.634Z,2.67
2022-08-29T13:59:39.345Z,2.65
2022-08-29T14:02:27.673Z,2.65
2022-08-29T14:05:16.117Z,2.67
2022-08-29T14:08:05.905Z,2.45
2022-08-29T14:10:54.117Z,2.63
2022-08-29T14:13:43.909Z,2.67
2022-08-29T14:16:32.114Z,2.33
2022-08-29T14:19:20.410Z,2.40
2022-08-29T14:22:10.509Z,2.50
2022-08-29T14:24:58.744Z,2.90
2022-08-29T14:27:48.358Z,2.28
2022-08-29T14:30:37.884Z,2.10
2022-08-29T14:33:26.045Z,2.10
2022-08-29T14:36:14.251Z,2.53
2022-08-29T14:39:02.812Z,2.83
2022-08-29T14:41:51.028Z,2.70
2022-08-29T14:44:40.067Z,2.63
2022-08-29T14:47:29.594Z,2.75
2022-08-29T14:50:18.004Z,2.75
2022-08-29T14:53:06.543Z,3.03
2022-08-29T14:55:55.699Z,2.63
2022-08-29T14:58:44.040Z,2.47
2022-08-29T15:01:32.485Z,2.70
2022-08-29T15:04:27.461Z,2.42
2022-08-29T15:07:24.631Z,3.15
2022-08-29T15:10:16.688Z,2.85
2022-08-29T15:13:07.275Z,2.90
2022-08-29T15:15:55.496Z,2.90
2022-08-29T15:19:24.912Z,2.88
2022-08-29T15:21:53.478Z,2.58
2022-08-29T15:24:44.506Z,2.70
2022-08-29T15:27:33.310Z,2.70
2022-08-29T15:30:24.266Z,2.45
2022-08-29T15:33:12.430Z,3.05
2022-08-29T15:36:00.660Z,3.03
2022-08-29T15:38:50.207Z,2.50
2022-08-29T15:41:38.757Z,2.40
2022-08-29T15:44:28.339Z,2.83
2022-08-29T15:47:16.899Z,2.28
2022-08-29T15:50:07.435Z,2.25
2022-08-29T15:52:55.994Z,2.70
2022-08-29T15:55:46.216Z,2.55
2022-08-29T15:58:34.418Z,2.50
2022-08-29T16:01:22.669Z,2.70
2022-08-29T16:04:11.358Z,2.35
2022-08-29T16:06:59.952Z,2.72
2022-08-29T16:09:48.137Z,2.58
2022-08-29T16:12:38.079Z,2.47
2022-08-29T16:15:27.716Z,2.45
2022-08-29T16:18:16.164Z,2.88
2022-08-29T16:21:04.797Z,2.53
2022-08-29T16:23:53.813Z,2.38
2022-08-29T16:26:45.582Z,3.13
2022-08-29T16:29:35.496Z,2.40
2022-08-29T16:32:23.730Z,2.50
2022-08-29T16:35:12.766Z,2.33
2022-08-29T16:38:02.886Z,2.53
2022-08-29T16:40:51.734Z,2.55
2022-08-29T16:43:41.297Z,2.40
2022-08-29T16:46:31.342Z,2.45
2022-08-29T16:49:20.225Z,2.10
2022-08-29T16:52:09.002Z,2.30
2022-08-29T16:54:57.295Z,2.22
2022-08-29T16:58:06.230Z,2.40
2022-08-29T17:00:54.446Z,2.17
2022-08-29T17:03:44.326Z,2.53
2022-08-29T17:06:33.707Z,1.98
2022-08-29T17:09:23.809Z,2.20
2022-08-29T17:12:11.126Z,2.30
2022-08-29T17:14:59.136Z,2.20
2022-08-29T17:17:47.355Z,1.90
2022-08-29T17:20:37.882Z,2.53
2022-08-29T17:23:26.336Z,1.88
2022-08-29T17:26:17.215Z,2.03
2022-08-29T17:29:06.298Z,2.47
2022-08-29T17:31:54.488Z,1.95
2022-08-29T17:34:44.036Z,2.30
2022-08-29T17:37:36.314Z,2.30
2022-08-29T17:40:25.336Z,2.38
2022-08-29T17:43:14.874Z,2.25
2022-08-29T17:46:03.150Z,2.63
2022-08-29T17:48:51.406Z,2.38
2022-08-29T17:51:40.334Z,2.25
2022-08-29T17:54:29.876Z,2.08
2022-08-29T17:57:18.101Z,2.30
2022-08-29T18:00:08.304Z,2.00
2022-08-29T18:02:56.617Z,2.55
2022-08-29T18:05:44.853Z,2.35
2022-08-29T18:08:33.090Z,2.33
2022-08-29T18:11:22.606Z,2.70
2022-08-29T18:14:11.354Z,2.45
2022-08-29T18:16:59.630Z,2.55
2022-08-29T18:19:47.908Z,2.50
2022-08-29T18:22:36.406Z,2.47
2022-08-29T18:25:24.686Z,2.30
2022-08-29T18:28:14.531Z,2.60
2022-08-29T18:31:03.922Z,3.10
2022-08-29T18:34:01.014Z,2.90
2022-08-29T18:36:49.775Z,3.00
2022-08-29T18:39:37.968Z,2.95
2022-08-29T18:42:39.909Z,2.97
2022-08-29T18:45:30.434Z,3.05
2022-08-29T18:48:18.711Z,3.70
2022-08-29T18:51:07.454Z,3.13
2022-08-29T18:53:57.546Z,3.08
2022-08-29T18:56:47.978Z,3.20
2022-08-29T18:59:36.267Z,2.72
2022-08-29T19:02:26.905Z,2.97
2022-08-29T19:05:16.552Z,3.03
2022-08-29T19:08:05.451Z,2.92
2022-08-29T19:10:55.405Z,2.83
2022-08-29T19:13:43.933Z,2.58
2022-08-29T19:16:33.769Z,2.95
2022-08-29T19:19:23.352Z,2.38
2022-08-29T19:22:11.747Z,3.00
2022-08-29T19:25:01.245Z,2.53
2022-08-29T19:27:53.991Z,2.13
2022-08-29T19:30:42.901Z,2.60
2022-08-29T19:33:32.036Z,2.00
2022-08-29T19:36:23.471Z,1.98
2022-08-29T19:39:11.689Z,1.70
2022-08-29T19:41:59.867Z,2.00
2022-08-29T19:44:48.087Z,2.00
2022-08-29T19:47:36.609Z,2.15
2022-08-29T19:50:25.168Z,1.80
2022-08-29T19:53:26.173Z,1.30
2022-08-29T19:56:14.861Z,1.30
2022-08-29T19:59:03.179Z,1.00
2022-08-29T20:01:51.464Z,1.58
2022-08-29T20:04:39.749Z,1.20
2022-08-29T20:07:27.930Z,1.15
2022-08-29T20:10:21.365Z,1.40
2022-08-29T20:13:10.715Z,1.50
2022-08-29T20:15:58.936Z,0.95
2022-08-29T20:18:47.530Z,0.85
2022-08-29T20:21:38.911Z,0.90
2022-08-29T20:24:27.150Z,0.60
2022-08-29T20:27:16.741Z,0.70
2022-08-29T20:30:05.824Z,0.70
2022-08-29T20:32:54.414Z,0.70
2022-08-29T20:36:00.101Z,0.80
2022-08-29T20:38:48.285Z,0.70
2022-08-29T20:41:36.525Z,0.60
2022-08-29T20:44:33.501Z,0.55
2022-08-29T20:47:23.803Z,0.60
2022-08-29T20:50:12.588Z,0.68
2022-08-29T20:53:00.791Z,0.50
2022-08-29T20:55:49.073Z,0.55
2022-08-29T20:58:37.259Z,0.40
2022-08-29T21:01:26.923Z,0.40
2022-08-29T21:04:33.250Z,0.40
2022-08-29T21:07:21.817Z,0.40
2022-08-29T21:10:10.637Z,0.13
2022-08-29T21:12:59.239Z,0.30
2022-08-29T21:15:48.232Z,0.43
2022-08-29T21:18:37.813Z,0.30
2022-08-29T21:21:26.532Z,0.40
2022-08-29T21:24:15.774Z,0.57
2022-08-29T21:27:04.343Z,0.30
2022-08-29T21:29:55.546Z,0.32
2022-08-29T21:32:43.752Z,0.40
2022-08-29T21:35:33.509Z,0.40
2022-08-29T21:38:22.138Z,0.50
2022-08-29T21:41:11.629Z,0.50
2022-08-29T21:43:59.963Z,0.40
2022-08-29T21:46:48.693Z,0.43
2022-08-29T21:49:37.150Z,0.40
2022-08-29T21:52:26.850Z,0.50
2022-08-29T21:55:15.761Z,0.40
2022-08-29T21:58:04.239Z,0.50
2022-08-29T22:00:53.102Z,0.32
2022-08-29T22:03:41.545Z,0.40
2022-08-29T22:06:30.033Z,0.30
2022-08-29T22:09:19.896Z,0.43
2022-08-29T22:12:10.095Z,0.47
2022-08-29T22:15:15.763Z,0.60
2022-08-29T22:18:05.618Z,0.50
2022-08-29T22:20:55.680Z,0.47
2022-08-29T22:23:44.658Z,0.45
2022-08-29T22:26:35.375Z,0.40
2022-08-29T22:32:11.698Z,0.55
2022-08-29T22:35:00.567Z,0.45
2022-08-29T22:37:50.667Z,0.40
2022-08-29T22:40:41.717Z,0.38
2022-08-29T22:43:31.536Z,0.30
2022-08-29T22:46:22.485Z,0.40
2022-08-29T22:49:10.994Z,0.50
2022-08-29T22:51:59.215Z,0.40
2022-08-29T22:54:47.629Z,0.40
2022-08-29T22:57:36.507Z,0.40
2022-08-29T23:00:27.236Z,0.63
2022-08-29T23:03:16.071Z,0.57
2022-08-29T23:06:05.135Z,0.65
2022-08-29T23:08:54.118Z,0.50
2022-08-29T23:11:42.470Z,0.60
2022-08-29T23:14:30.972Z,0.57
2022-08-29T23:17:20.964Z,0.55
2022-08-29T23:20:12.123Z,0.53
2022-08-29T23:23:00.381Z,1.25
2022-08-29T23:25:48.983Z,2.03
2022-08-29T23:28:37.312Z,2.92
2022-08-29T23:31:26.370Z,2.05
2022-08-29T23:34:16.348Z,0.70
2022-08-29T23:37:05.211Z,0.65
2022-08-29T23:39:53.527Z,0.57
2022-08-29T23:42:41.774Z,0.50
2022-08-29T23:45:30.045Z,0.80
2022-08-29T23:48:18.566Z,0.88
2022-08-29T23:51:15.039Z,0.50
2022-08-29T23:54:03.345Z,0.60
2022-08-29T23:56:51.546Z,0.60
2022-08-29T23:59:57.458Z,1.10
